Sky Ever — DSQX9 — position and weather

sailwx.info

Track history (hours):
 
Tides and Currents Weather Stations Pressure Air Temp Water Temp Dewpoint Dewpoint Depression Visibility Wind Speed Wind Dir Waves Ship Positions

Sky Ever

Last reported at 2015-Feb-22 19:32 UTC. Time now 2015-Feb-28 17:29 UTC.
Position N 33°58' E 130°42'.

Length 76 m; draft 3.3 m.

Type: Cargo ship. MMSI: 441751000.

Date/timePositionNaut miles runAvg speedWind from/ knotsBaromVisibWave heightAir tempDewpointWater temp
2015-Feb-22 19:32N 33°58' E 130°42'210 8.7
2015-Feb-21 19:25N 34°35' E 134°52'6 6.7
2015-Feb-21 18:30N 34°38' E 134°59'6 6.0
2015-Feb-21 17:33N 34°35' E 135°05'9 9.2
2015-Feb-21 16:33N 34°26' E 135°01'12 9.2
2015-Feb-21 15:15N 34°14' E 134°59'9 9.6
2015-Feb-21 14:21N 34°06' E 135°00'229 7.8
2015-Feb-20 09:06N 34°59' E 139°31'4 8.1
2015-Feb-20 08:33N 35°02' E 139°35'9 9.4
2015-Feb-20 07:33N 35°08' E 139°43'8 8.4
2015-Feb-20 06:33N 35°16' E 139°45'8 8.0
2015-Feb-20 05:33N 35°24' E 139°43'9 9.0
2015-Feb-20 04:33N 35°30' E 139°51'  
2015-Feb-18 00:18N 35°33' E 139°57'6 8.1
2015-Feb-17 23:33N 35°29' E 139°52'8 7.8
2015-Feb-17 22:33N 35°23' E 139°46'7 6.5
2015-Feb-17 21:33N 35°16' E 139°46'8 7.6
2015-Feb-17 20:33N 35°09' E 139°47'7 6.6
2015-Feb-17 19:33N 35°04' E 139°41'  
Track history (hours):
 
Tides and Currents Weather Stations Pressure Air Temp Water Temp Dewpoint Dewpoint Depression Visibility Wind Speed Wind Dir Waves Ship Positions

Sky Ever

Last reported at 2015-Feb-22 19:32 UTC. Time now 2015-Feb-28 17:29 UTC.
Position N 33°58' E 130°42'.

Length 76 m; draft 3.3 m.

Type: Cargo ship. MMSI: 441751000.

Date/timePositionNaut miles runAvg speedWind from/ knotsBaromVisibWave heightAir tempDewpointWater temp
2015-Feb-22 19:32N 33°58' E 130°42'210 8.7
2015-Feb-21 19:25N 34°35' E 134°52'6 6.7
2015-Feb-21 18:30N 34°38' E 134°59'6 6.0
2015-Feb-21 17:33N 34°35' E 135°05'9 9.2
2015-Feb-21 16:33N 34°26' E 135°01'12 9.2
2015-Feb-21 15:15N 34°14' E 134°59'9 9.6
2015-Feb-21 14:21N 34°06' E 135°00'229 7.8
2015-Feb-20 09:06N 34°59' E 139°31'4 8.1
2015-Feb-20 08:33N 35°02' E 139°35'9 9.4
2015-Feb-20 07:33N 35°08' E 139°43'8 8.4
2015-Feb-20 06:33N 35°16' E 139°45'8 8.0
2015-Feb-20 05:33N 35°24' E 139°43'9 9.0
2015-Feb-20 04:33N 35°30' E 139°51'  
2015-Feb-18 00:18N 35°33' E 139°57'6 8.1
2015-Feb-17 23:33N 35°29' E 139°52'8 7.8
2015-Feb-17 22:33N 35°23' E 139°46'7 6.5
2015-Feb-17 21:33N 35°16' E 139°46'8 7.6
2015-Feb-17 20:33N 35°09' E 139°47'7 6.6
2015-Feb-17 19:33N 35°04' E 139°41'  

Dump ship's entire track history